Time;durP1;ratioP1;P1;durP2;ratioP2;P2;SDS_P1;SDS_P2;PMS_P1;PMS_P2;Temp;Humidity;BMP_temperature;BMP_pressure;BME280_temperature;BME280_humidity;BME280_pressure;Samples;Min_cycle;Max_cycle;Signal;HPM_P1;HPM_P2
2021/01/19 00:02:07;;;;;;;78.13;28.33;;;;;;;21.33;11.60;98279.38;5061764;28;20486;-78
2021/01/19 00:04:33;;;;;;;62.78;23.35;;;;;;;20.96;11.91;98270.03;5051651;28;20059;-78
2021/01/19 00:06:59;;;;;;;72.07;25.65;;;;;;;21.61;11.55;98266.41;5038100;28;20052;-78
2021/01/19 00:09:26;;;;;;;75.15;26.77;;;;;;;22.25;11.36;98252.56;5048287;28;20036;-78
2021/01/19 00:11:52;;;;;;;62.33;24.50;;;;;;;22.60;10.88;98249.34;5043373;28;20433;-78
2021/01/19 00:14:18;;;;;;;77.75;29.15;;;;;;;22.73;10.91;98238.41;5046807;28;20044;-78
2021/01/19 00:16:44;;;;;;;93.43;34.58;;;;;;;21.31;11.74;98242.72;5049813;28;20045;-78
2021/01/19 00:19:10;;;;;;;104.75;38.40;;;;;;;20.40;12.35;98235.69;5047708;28;20363;-78
2021/01/19 00:21:36;;;;;;;81.13;28.42;;;;;;;20.55;12.43;98237.22;5048996;28;20107;-78
2021/01/19 00:24:02;;;;;;;72.78;26.60;;;;;;;21.19;11.96;98234.81;5053072;28;20051;-78
2021/01/19 00:26:28;;;;;;;66.00;23.08;;;;;;;21.34;11.92;98233.50;5045621;28;20025;-78
2021/01/19 00:28:54;;;;;;;60.60;21.48;;;;;;;21.55;11.91;98238.13;5038522;28;20040;-79
2021/01/19 00:31:20;;;;;;;57.65;20.17;;;;;;;21.77;11.84;98244.28;5044081;28;20546;-78
2021/01/19 00:33:46;;;;;;;60.88;20.77;;;;;;;22.06;11.50;98242.00;5038748;28;20398;-78
2021/01/19 00:36:12;;;;;;;43.97;16.30;;;;;;;22.29;11.51;98237.34;5035682;28;20037;-78
2021/01/19 00:38:38;;;;;;;63.00;23.80;;;;;;;22.14;11.57;98246.31;5036442;28;20029;-78
2021/01/19 00:41:05;;;;;;;61.10;23.20;;;;;;;21.80;12.01;98246.25;5038628;28;20033;-78
2021/01/19 00:43:31;;;;;;;60.00;22.30;;;;;;;22.03;11.89;98235.28;5040692;28;20037;-79
2021/01/19 00:45:57;;;;;;;58.40;21.40;;;;;;;22.57;11.64;98230.56;5047998;28;20025;-79
2021/01/19 00:48:23;;;;;;;55.72;20.15;;;;;;;22.81;11.43;98229.47;5050561;28;20025;-79
2021/01/19 00:50:49;;;;;;;73.95;26.10;;;;;;;22.13;11.85;98230.75;5046767;28;20417;-79
2021/01/19 00:53:15;;;;;;;71.32;27.77;;;;;;;21.22;12.51;98233.19;5040155;28;20402;-79
2021/01/19 00:55:41;;;;;;;58.90;22.65;;;;;;;21.35;12.44;98231.53;5040356;28;20029;-79
2021/01/19 00:58:08;;;;;;;46.30;19.67;;;;;;;21.82;12.34;98227.09;5038942;28;20025;-78
2021/01/19 01:00:34;;;;;;;52.90;21.02;;;;;;;21.88;12.31;98228.22;5041741;28;20033;-78
2021/01/19 01:03:00;;;;;;;42.85;15.60;;;;;;;22.48;11.90;98219.91;5042311;28;20545;-78
2021/01/19 01:05:26;;;;;;;47.33;17.70;;;;;;;22.43;12.18;98211.97;5052440;28;20059;-79
2021/01/19 01:07:52;;;;;;;55.08;22.08;;;;;;;22.25;12.21;98214.22;5042087;28;20474;-78
2021/01/19 01:10:19;;;;;;;57.72;22.73;;;;;;;22.27;12.12;98199.81;5048134;28;20044;-79
2021/01/19 01:12:45;;;;;;;60.10;22.63;;;;;;;21.97;12.32;98206.16;5039445;28;20030;-78
2021/01/19 01:15:16;;;;;;;48.80;19.50;;;;;;;21.90;12.59;98207.03;5041635;28;20422;-79
2021/01/19 01:17:42;;;;;;;;;;;;;;;22.08;12.41;98203.25;5045054;28;20068;-78
2021/01/19 01:20:10;;;;;;;40.47;14.82;;;;;;;22.44;12.25;98207.19;5039632;28;19916;-79
2021/01/19 01:22:41;;;;;;;29.38;12.10;;;;;;;22.59;12.24;98195.38;5039970;28;20052;-79
2021/01/19 01:25:12;;;;;;;29.20;12.77;;;;;;;23.00;12.03;98197.19;5044174;28;20059;-78
2021/01/19 01:27:39;;;;;;;39.53;14.32;;;;;;;23.24;11.81;98193.22;5041759;28;20132;-78
2021/01/19 01:30:07;;;;;;;36.20;13.73;;;;;;;22.65;12.24;98193.72;5040308;28;20073;-78
2021/01/19 01:32:36;;;;;;;42.08;15.98;;;;;;;22.28;12.14;98196.59;5034187;28;20037;-79
2021/01/19 01:35:03;;;;;;;43.63;15.15;;;;;;;21.83;12.58;98198.69;5035403;28;20044;-79
2021/01/19 01:37:29;;;;;;;39.50;15.88;;;;;;;21.93;12.71;98188.66;5034097;28;20102;-77
2021/01/19 01:39:55;;;;;;;32.03;13.88;;;;;;;22.39;12.63;98177.66;5040018;28;20040;-78
2021/01/19 01:42:21;;;;;;;32.83;12.82;;;;;;;22.69;12.21;98171.28;5040825;28;20029;-78
2021/01/19 01:44:51;;;;;;;37.25;15.02;;;;;;;22.59;12.25;98184.16;5037128;28;20025;-78
2021/01/19 01:47:28;;;;;;;31.73;13.70;;;;;;;22.47;12.53;98173.56;5047113;28;20482;-78
2021/01/19 01:49:55;;;;;;;36.72;15.57;;;;;;;22.72;12.29;98170.44;5042676;28;20506;-78
2021/01/19 01:52:23;;;;;;;37.53;14.95;;;;;;;22.55;12.82;98172.25;5041326;28;20037;-79
2021/01/19 01:54:50;;;;;;;29.75;12.88;;;;;;;22.35;12.96;98173.34;5041057;28;20076;-78
2021/01/19 01:57:17;;;;;;;30.70;12.93;;;;;;;22.16;13.36;98168.38;5041245;28;20118;-79
2021/01/19 01:59:58;;;;;;;27.65;11.93;;;;;;;22.43;13.16;98170.00;5033352;28;20045;-78
2021/01/19 02:02:24;;;;;;;38.08;13.95;;;;;;;22.62;12.99;98154.59;5043240;28;20048;-79
2021/01/19 02:04:50;;;;;;;31.88;13.15;;;;;;;22.68;13.05;98150.13;5052350;28;20061;-78
2021/01/19 02:07:52;;;;;;;29.13;12.07;;;;;;;22.85;12.81;98151.81;5042352;28;20112;-78
2021/01/19 02:10:39;;;;;;;30.35;12.07;;;;;;;23.21;12.58;98150.03;5038465;28;20511;-77
2021/01/19 02:13:32;;;;;;;29.77;12.23;;;;;;;23.06;12.86;98145.88;5040705;28;20037;-77
2021/01/19 02:16:32;;;;;;;30.42;13.43;;;;;;;22.92;12.99;98151.72;5063954;28;20560;-78
2021/01/19 02:19:35;;;;;;;23.98;11.43;;;;;;;23.21;12.91;98147.25;5044932;28;20521;-78
2021/01/19 02:22:16;;;;;;;24.10;9.63;;;;;;;22.85;13.14;98149.03;5049949;28;20041;-78
2021/01/19 02:25:01;;;;;;;;;;;;;;;22.77;13.27;98143.97;5046878;28;20029;-78
2021/01/19 02:27:55;;;;;;;28.65;10.95;;;;;;;22.51;13.47;98142.72;5037882;28;19945;-78
2021/01/19 02:30:44;;;;;;;29.00;11.63;;;;;;;22.78;13.38;98128.78;5040449;28;20510;-78
2021/01/19 02:33:35;;;;;;;27.70;11.27;;;;;;;22.83;13.21;98136.66;5058159;28;20439;-78
2021/01/19 02:36:05;;;;;;;22.38;10.43;;;;;;;23.05;13.07;98137.91;5049487;28;20051;-78
2021/01/19 02:38:36;;;;;;;24.55;10.30;;;;;;;23.27;13.14;98131.50;5048664;28;20033;-78
2021/01/19 02:41:04;;;;;;;26.17;10.50;;;;;;;23.25;13.46;98128.34;5036262;28;20073;-78
2021/01/19 02:43:30;;;;;;;18.35;8.43;;;;;;;23.25;13.24;98124.75;5044385;28;20036;-78
2021/01/19 02:45:57;;;;;;;21.17;10.10;;;;;;;23.01;13.79;98134.41;5040443;28;20028;-78
2021/01/19 02:48:25;;;;;;;17.83;7.45;;;;;;;23.16;13.62;98130.91;5046960;28;20032;-78
2021/01/19 02:50:52;;;;;;;24.42;10.02;;;;;;;23.22;13.65;98128.44;5060061;28;20364;-78
2021/01/19 02:53:20;;;;;;;20.48;9.10;;;;;;;23.19;13.63;98127.28;5044078;28;20034;-78
2021/01/19 02:55:46;;;;;;;20.10;8.05;;;;;;;23.55;13.33;98129.44;5049552;28;20069;-78
2021/01/19 02:58:26;;;;;;;15.90;7.53;;;;;;;23.49;13.65;98125.53;5046414;28;20490;-78
2021/01/19 03:01:12;;;;;;;14.55;6.60;;;;;;;23.48;13.80;98116.34;5052710;28;20069;-78
2021/01/19 03:03:40;;;;;;;15.07;7.53;;;;;;;23.52;13.70;98124.69;5046170;28;20041;-79
2021/01/19 03:06:18;;;;;;;13.60;6.38;;;;;;;23.42;14.09;98120.88;5041693;28;20037;-79
2021/01/19 03:08:45;;;;;;;19.75;7.45;;;;;;;23.04;14.49;98125.13;5037115;28;20071;-78
2021/01/19 03:11:15;;;;;;;16.85;7.47;;;;;;;23.01;14.67;98126.00;5046150;28;20035;-79
2021/01/19 03:13:44;;;;;;;13.10;6.22;;;;;;;23.03;14.61;98110.34;5039003;28;20064;-79
2021/01/19 03:16:16;;;;;;;12.10;5.75;;;;;;;23.01;14.72;98114.78;5047030;28;20032;-78
2021/01/19 03:18:44;;;;;;;12.35;6.03;;;;;;;23.41;14.33;98110.09;5047755;28;20036;-79
2021/01/19 03:21:11;;;;;;;12.20;5.57;;;;;;;23.59;14.22;98111.34;5043725;28;20059;-79
2021/01/19 03:23:38;;;;;;;9.40;5.32;;;;;;;23.63;14.35;98112.06;5042412;28;20478;-79
2021/01/19 03:26:05;;;;;;;11.95;6.25;;;;;;;23.21;14.70;98104.41;5036889;28;20098;-78
2021/01/19 03:28:31;;;;;;;11.18;5.38;;;;;;;23.38;14.51;98101.31;5029264;28;23061;-79
2021/01/19 03:30:57;;;;;;;11.55;4.80;;;;;;;23.48;14.54;98101.56;5029546;28;20055;-78
2021/01/19 03:33:24;;;;;;;9.60;4.43;;;;;;;23.78;14.14;98095.75;5037117;28;20044;-78
2021/01/19 03:35:50;;;;;;;9.95;5.20;;;;;;;23.15;14.76;98097.75;5038243;28;20104;-79
2021/01/19 03:38:17;;;;;;;10.70;5.63;;;;;;;23.64;14.32;98093.25;5042521;28;20108;-78
2021/01/19 03:40:43;;;;;;;12.98;5.85;;;;;;;23.81;14.30;98092.06;5040427;28;20049;-79
2021/01/19 03:43:09;;;;;;;22.48;7.63;;;;;;;23.01;14.89;98090.34;5054896;28;20123;-79
2021/01/19 03:45:36;;;;;;;21.52;8.05;;;;;;;23.25;14.71;98096.72;5048933;28;20505;-78
2021/01/19 03:48:02;;;;;;;15.25;7.15;;;;;;;23.43;14.60;98094.44;5044789;28;20040;-79
2021/01/19 03:50:29;;;;;;;12.95;5.50;;;;;;;23.22;14.77;98089.97;5047279;28;20083;-78
2021/01/19 03:52:56;;;;;;;15.82;5.35;;;;;;;23.46;14.54;98101.19;5051407;28;20034;-79
2021/01/19 03:55:22;;;;;;;11.20;5.70;;;;;;;23.31;14.69;98095.03;5048282;28;20063;-79
2021/01/19 03:57:48;;;;;;;8.77;4.85;;;;;;;23.06;14.89;98097.47;5047096;28;20063;-79
2021/01/19 04:00:15;;;;;;;12.05;5.88;;;;;;;22.17;15.76;98089.66;5038658;28;20040;-78
2021/01/19 04:02:42;;;;;;;10.57;5.70;;;;;;;21.90;16.12;98097.22;5043333;28;20036;-79
2021/01/19 04:05:09;;;;;;;9.68;5.05;;;;;;;21.90;16.30;98088.84;5044053;28;20697;-78
2021/01/19 04:07:39;;;;;;;11.32;4.95;;;;;;;21.73;16.36;98087.03;5039401;28;20095;-80
2021/01/19 04:10:08;;;;;;;8.75;4.57;;;;;;;21.81;16.29;98092.13;5042478;28;20037;-79
2021/01/19 04:12:34;;;;;;;8.45;4.32;;;;;;;22.22;16.13;98088.44;5052971;28;20103;-79
2021/01/19 04:15:00;;;;;;;8.02;4.55;;;;;;;22.65;15.77;98089.38;5049441;28;20525;-79
2021/01/19 04:17:27;;;;;;;11.15;4.97;;;;;;;22.56;15.89;98083.50;5043855;28;20067;-78
2021/01/19 04:19:53;;;;;;;9.23;4.07;;;;;;;22.69;15.73;98082.50;5060589;28;20512;-79
2021/01/19 04:22:19;;;;;;;8.98;4.38;;;;;;;23.23;15.25;98088.78;5062132;28;20451;-79
2021/01/19 04:24:45;;;;;;;7.78;3.40;;;;;;;23.34;15.11;98086.59;5049757;28;20033;-79
2021/01/19 04:27:11;;;;;;;7.88;3.65;;;;;;;23.12;15.34;98078.97;5051503;28;20055;-79
2021/01/19 04:29:37;;;;;;;8.80;4.68;;;;;;;22.63;15.68;98084.22;5052569;28;20060;-79
2021/01/19 04:32:03;;;;;;;6.65;3.58;;;;;;;22.57;15.90;98090.66;5047900;28;20486;-79
2021/01/19 04:34:29;;;;;;;9.07;4.60;;;;;;;22.24;16.20;98086.75;5044508;28;20044;-79
2021/01/19 04:36:55;;;;;;;8.60;4.30;;;;;;;21.75;16.71;98090.22;5042323;28;20022;-79
2021/01/19 04:39:21;;;;;;;12.30;6.13;;;;;;;21.02;17.54;98092.56;5042622;28;20032;-79
2021/01/19 04:41:48;;;;;;;5.55;3.42;;;;;;;22.32;16.30;98085.47;5046018;28;20037;-78
2021/01/19 04:44:15;;;;;;;9.23;4.53;;;;;;;22.14;16.42;98084.94;5042736;28;20033;-78
2021/01/19 04:46:43;;;;;;;7.50;4.07;;;;;;;22.02;16.63;98091.09;5045877;28;20468;-79
2021/01/19 04:49:11;;;;;;;6.13;3.40;;;;;;;21.75;16.94;98084.63;5045307;28;20025;-79
2021/01/19 04:51:39;;;;;;;6.70;3.83;;;;;;;22.58;16.11;98086.66;5048306;28;20033;-79
2021/01/19 04:54:07;;;;;;;6.22;4.13;;;;;;;22.78;15.94;98083.97;5049995;28;20483;-79
2021/01/19 04:56:39;;;;;;;7.90;3.88;;;;;;;22.81;15.74;98080.31;5051775;28;20044;-79
2021/01/19 04:59:12;;;;;;;7.20;4.07;;;;;;;23.01;15.71;98083.97;5051447;28;20033;-79
2021/01/19 05:01:54;;;;;;;6.80;3.90;;;;;;;22.69;15.96;98090.09;5038167;28;20080;-78
2021/01/19 05:04:38;;;;;;;6.13;4.15;;;;;;;22.39;16.20;98090.16;5044559;28;20401;-78
2021/01/19 05:07:33;;;;;;;7.45;4.32;;;;;;;22.10;16.66;98075.78;5044914;28;20442;-78
2021/01/19 05:10:29;;;;;;;9.23;4.30;;;;;;;22.42;16.38;98087.31;5048290;28;20128;-78
2021/01/19 05:13:06;;;;;;;7.90;3.92;;;;;;;21.85;16.79;98090.09;5052139;28;20035;-78
2021/01/19 05:15:35;;;;;;;9.48;4.38;;;;;;;22.91;15.91;98082.94;5039616;28;20044;-78
2021/01/19 05:18:02;;;;;;;7.97;4.25;;;;;;;23.27;15.56;98089.50;5049131;28;20028;-79
2021/01/19 05:20:30;;;;;;;9.13;4.97;;;;;;;23.06;15.93;98094.66;5048400;28;20059;-79
2021/01/19 05:22:58;;;;;;;16.83;7.88;;;;;;;23.16;15.71;98097.31;5036125;28;20037;-79
2021/01/19 05:25:24;;;;;;;9.38;4.85;;;;;;;23.10;15.97;98101.03;5034488;28;20563;-78
2021/01/19 05:27:51;;;;;;;6.45;3.30;;;;;;;23.24;15.79;98097.97;5049889;28;20486;-79
2021/01/19 05:30:17;;;;;;;7.32;3.85;;;;;;;22.79;16.19;98091.16;5044945;28;20049;-79
2021/01/19 05:32:44;;;;;;;7.80;3.83;;;;;;;22.49;16.24;98090.00;5044709;28;20116;-78
2021/01/19 05:35:14;;;;;;;11.10;4.95;;;;;;;22.33;16.64;98097.44;5049267;28;20028;-78
2021/01/19 05:37:42;;;;;;;10.57;5.05;;;;;;;22.71;16.34;98100.91;5042817;28;20490;-79
2021/01/19 05:40:09;;;;;;;16.20;6.95;;;;;;;22.36;16.60;98100.19;5048266;28;20040;-80
2021/01/19 05:42:36;;;;;;;18.08;9.25;;;;;;;22.85;16.37;98093.03;5044072;28;20030;-79
2021/01/19 05:45:07;;;;;;;10.57;5.40;;;;;;;22.20;16.82;98096.41;5050455;28;20033;-79
2021/01/19 05:47:34;;;;;;;10.25;6.38;;;;;;;22.36;16.79;98094.59;5045156;28;20044;-79
2021/01/19 05:50:00;;;;;;;10.45;5.30;;;;;;;22.19;16.85;98100.44;5052054;28;20086;-80
2021/01/19 05:52:31;;;;;;;12.82;5.40;;;;;;;22.10;17.00;98097.38;5043424;28;20026;-79
2021/01/19 05:54:59;;;;;;;6.38;3.55;;;;;;;22.52;16.64;98099.56;5053219;28;20040;-79
2021/01/19 05:57:26;;;;;;;6.68;4.40;;;;;;;22.65;16.51;98097.78;5050263;28;20025;-79
2021/01/19 05:59:54;;;;;;;11.65;5.88;;;;;;;23.36;15.74;98098.16;5044966;28;20041;-79
2021/01/19 06:02:22;;;;;;;10.15;5.70;;;;;;;23.40;15.58;98098.09;5043587;28;20061;-79
2021/01/19 06:04:53;;;;;;;8.40;4.63;;;;;;;23.33;15.91;98095.41;5045819;28;20033;-80
2021/01/19 06:07:24;;;;;;;10.43;5.65;;;;;;;22.58;16.52;98101.44;5049052;28;20040;-80
2021/01/19 06:09:50;;;;;;;;;;;;;;;23.11;16.24;98099.78;5055240;28;20033;-79
2021/01/19 06:12:18;;;;;;;9.63;5.05;;;;;;;23.59;15.67;98093.72;5041857;28;19917;-81
2021/01/19 06:14:49;;;;;;;7.45;4.35;;;;;;;21.90;17.00;98098.03;5056257;28;20036;-81
2021/01/19 06:17:20;;;;;;;13.00;5.28;;;;;;;22.60;16.64;98092.63;5043567;28;20037;-81
2021/01/19 06:19:48;;;;;;;9.27;5.32;;;;;;;22.83;16.41;98089.06;5047271;28;20041;-80
2021/01/19 06:22:20;;;;;;;9.38;4.60;;;;;;;23.24;16.11;98095.16;5049005;28;20037;-79
2021/01/19 06:24:48;;;;;;;8.70;4.22;;;;;;;23.88;15.57;98095.53;5045318;28;20028;-81
2021/01/19 06:27:35;;;;;;;12.85;5.43;;;;;;;23.72;15.64;98086.25;5054501;28;20037;-79
2021/01/19 06:30:01;;;;;;;12.02;4.95;;;;;;;23.77;15.48;98094.16;5046852;28;20049;-79
2021/01/19 06:32:50;;;;;;;7.70;4.80;;;;;;;23.72;15.53;98092.66;5053500;28;20060;-79
2021/01/19 06:35:19;;;;;;;9.25;4.50;;;;;;;23.96;15.35;98096.97;5046323;28;20041;-78
2021/01/19 06:37:47;;;;;;;11.98;5.40;;;;;;;23.74;15.51;98090.19;5043652;28;20541;-78
2021/01/19 06:40:20;;;;;;;13.20;6.30;;;;;;;23.78;15.52;98092.94;5043731;28;20034;-79
2021/01/19 06:43:02;;;;;;;10.45;5.43;;;;;;;22.90;16.46;98095.34;5051588;28;20494;-78
2021/01/19 06:45:28;;;;;;;10.60;5.75;;;;;;;23.43;16.10;98094.44;5047810;28;20025;-79
2021/01/19 06:47:56;;;;;;;10.40;5.18;;;;;;;23.87;15.74;98101.56;5056569;28;20034;-79
2021/01/19 06:50:26;;;;;;;11.85;5.60;;;;;;;23.80;15.73;98091.28;5050751;28;20033;-79
2021/01/19 06:53:13;;;;;;;10.35;5.05;;;;;;;22.89;16.49;98093.78;5053586;28;20052;-79
2021/01/19 06:56:03;;;;;;;7.88;5.13;;;;;;;22.67;16.90;98090.53;5055833;28;20036;-79
2021/01/19 06:58:48;;;;;;;9.15;5.18;;;;;;;23.02;16.55;98091.16;5053082;28;20059;-79
2021/01/19 07:01:16;;;;;;;8.48;5.25;;;;;;;23.07;16.54;98101.88;5048202;28;20060;-79
2021/01/19 07:03:44;;;;;;;9.73;3.85;;;;;;;22.59;17.12;98103.03;5051607;28;20017;-79
2021/01/19 07:06:12;;;;;;;9.95;4.80;;;;;;;22.23;17.59;98096.38;5044267;28;20116;-79
2021/01/19 07:09:28;;;;;;;8.73;4.47;;;;;;;21.79;18.06;98100.13;5055837;28;20021;-79
2021/01/19 07:12:05;;;;;;;6.63;4.38;;;;;;;22.15;17.64;98099.72;5053424;28;20064;-79
2021/01/19 07:14:40;;;;;;;11.50;4.25;;;;;;;22.85;16.90;98101.44;5051860;28;20029;-79
2021/01/19 07:17:15;;;;;;;9.43;5.10;;;;;;;22.44;17.40;98101.66;5038286;28;20538;-79
2021/01/19 07:19:49;;;;;;;7.65;3.83;;;;;;;23.16;16.69;98096.50;5050493;28;20095;-79
2021/01/19 07:22:52;;;;;;;8.32;4.63;;;;;;;22.75;17.22;98102.41;5052746;28;20028;-79
2021/01/19 07:25:19;;;;;;;8.23;4.57;;;;;;;23.49;16.54;98103.13;5058567;28;20512;-79
2021/01/19 07:27:46;;;;;;;7.95;4.68;;;;;;;23.26;16.60;98101.94;5063359;28;20032;-79
2021/01/19 07:30:14;;;;;;;9.80;4.57;;;;;;;22.87;16.99;98107.41;5053732;28;20044;-79
2021/01/19 07:32:40;;;;;;;8.27;4.10;;;;;;;23.43;16.51;98096.44;5054169;28;20033;-79
2021/01/19 07:35:08;;;;;;;5.93;3.72;;;;;;;22.94;17.10;98095.31;5054545;28;20487;-80
2021/01/19 07:37:36;;;;;;;10.38;5.47;;;;;;;22.94;17.08;98104.47;5053022;28;20029;-79
2021/01/19 07:40:15;;;;;;;8.95;5.35;;;;;;;22.93;16.97;98102.91;5061189;28;20138;-79
2021/01/19 07:42:41;;;;;;;4.45;2.55;;;;;;;21.93;18.13;98105.59;5052104;28;20048;-79
2021/01/19 07:45:07;;;;;;;9.95;4.60;;;;;;;22.49;17.65;98092.81;5054880;28;20029;-79
2021/01/19 07:47:44;;;;;;;36.72;14.85;;;;;;;22.81;17.27;98095.09;5049976;28;20032;-79
2021/01/19 07:50:19;;;;;;;7.65;4.55;;;;;;;22.29;17.66;98097.47;5044535;28;20049;-79
2021/01/19 07:52:47;;;;;;;10.18;4.57;;;;;;;22.80;17.42;98092.75;5051141;28;20028;-79
2021/01/19 07:55:15;;;;;;;7.15;4.25;;;;;;;23.22;16.88;98092.78;5058586;28;20021;-79
2021/01/19 07:57:50;;;;;;;8.98;5.22;;;;;;;23.87;16.13;98090.34;5046593;28;20037;-79
2021/01/19 08:00:24;;;;;;;9.50;4.53;;;;;;;22.15;17.79;98094.88;5052199;28;20037;-78
2021/01/19 08:03:05;;;;;;;7.43;4.28;;;;;;;21.91;18.16;98096.03;5047937;28;20021;-79
2021/01/19 08:05:32;;;;;;;10.95;4.80;;;;;;;22.05;18.04;98101.44;5056345;28;20440;-79
2021/01/19 08:07:59;;;;;;;7.85;4.80;;;;;;;23.55;16.69;98093.03;5051762;28;20048;-80
2021/01/19 08:10:27;;;;;;;9.27;5.22;;;;;;;23.78;16.47;98088.09;5056549;28;20517;-79
2021/01/19 08:12:56;;;;;;;7.28;4.38;;;;;;;23.52;16.68;98097.47;5051562;28;20034;-79
2021/01/19 08:15:33;;;;;;;7.90;4.47;;;;;;;23.80;16.39;98088.50;5060564;28;20401;-79
2021/01/19 08:18:02;;;;;;;8.30;4.82;;;;;;;24.20;16.06;98094.84;5058742;28;20021;-79
2021/01/19 08:20:35;;;;;;;8.20;4.53;;;;;;;23.85;16.47;98092.81;5050753;28;20095;-79
2021/01/19 08:23:11;;;;;;;8.45;4.63;;;;;;;24.07;16.28;98093.94;5054207;28;20455;-79
2021/01/19 08:25:39;;;;;;;7.00;4.10;;;;;;;24.45;16.15;98089.50;5054048;28;20478;-79
2021/01/19 08:28:05;;;;;;;7.93;4.20;;;;;;;24.18;16.49;98090.94;5048330;28;20056;-79
2021/01/19 08:30:32;;;;;;;7.85;3.90;;;;;;;24.01;16.50;98088.00;5044462;28;20034;-79
2021/01/19 08:32:59;;;;;;;6.10;3.70;;;;;;;23.40;17.10;98091.69;5054496;28;20439;-80
2021/01/19 08:35:29;;;;;;;5.93;3.60;;;;;;;23.55;17.04;98095.81;5051692;28;20441;-79
2021/01/19 08:38:04;;;;;;;5.97;3.75;;;;;;;23.13;17.48;98095.34;5048456;28;20091;-79
2021/01/19 08:40:33;;;;;;;5.00;3.33;;;;;;;24.12;16.51;98087.84;5050166;28;20037;-79
2021/01/19 08:43:00;;;;;;;7.80;4.72;;;;;;;22.99;17.60;98094.78;5048964;28;20044;-79
2021/01/19 08:45:28;;;;;;;5.57;3.70;;;;;;;24.11;16.69;98094.66;5048128;28;20075;-80
2021/01/19 08:47:57;;;;;;;8.75;4.22;;;;;;;23.70;16.82;98094.31;5044103;28;20033;-79
2021/01/19 08:50:24;;;;;;;9.05;4.45;;;;;;;24.14;16.60;98087.38;5046220;28;20057;-79
2021/01/19 08:52:51;;;;;;;7.97;4.47;;;;;;;24.00;16.75;98088.47;5049196;28;20051;-80
2021/01/19 08:55:18;;;;;;;6.97;4.03;;;;;;;23.93;16.73;98083.81;5049622;28;20433;-80
2021/01/19 08:57:50;;;;;;;9.73;4.25;;;;;;;23.45;17.26;98100.41;5046863;28;20072;-80
2021/01/19 09:00:37;;;;;;;7.57;4.55;;;;;;;23.46;17.06;98096.38;5045536;28;20560;-81
2021/01/19 09:03:16;;;;;;;6.72;3.92;;;;;;;23.34;17.40;98097.78;5040453;28;20049;-80
2021/01/19 09:05:43;;;;;;;7.07;4.03;;;;;;;22.90;17.65;98094.56;5045493;28;20024;-80
2021/01/19 09:08:15;;;;;;;6.85;3.95;;;;;;;23.00;17.69;98088.00;5051624;28;20029;-80
2021/01/19 09:10:42;;;;;;;5.13;3.00;;;;;;;22.89;18.08;98090.19;5052533;28;20032;-80
2021/01/19 09:13:08;;;;;;;5.47;2.70;;;;;;;22.25;18.63;98093.94;5048295;28;20112;-80
2021/01/19 09:15:40;;;;;;;8.88;4.50;;;;;;;22.65;18.26;98090.19;5038628;28;20039;-80
2021/01/19 09:18:14;;;;;;;6.82;3.78;;;;;;;22.83;18.12;98094.66;5044809;28;20040;-81
2021/01/19 09:20:41;;;;;;;8.90;4.68;;;;;;;23.80;17.06;98088.50;5049939;28;20160;-80
2021/01/19 09:23:15;;;;;;;14.18;7.20;;;;;;;23.63;17.21;98092.44;5050983;28;20071;-80
2021/01/19 09:25:45;;;;;;;6.38;3.83;;;;;;;23.46;17.08;98098.38;5052268;28;20032;-81
2021/01/19 09:28:13;;;;;;;8.00;4.97;;;;;;;24.68;16.35;98096.97;5049617;28;20029;-80
2021/01/19 09:30:39;;;;;;;6.43;3.95;;;;;;;24.53;16.28;98101.31;5052710;28;20041;-81
2021/01/19 09:33:09;;;;;;;9.45;4.63;;;;;;;24.94;15.76;98097.97;5045909;28;20616;-81
2021/01/19 09:35:37;;;;;;;8.73;4.15;;;;;;;24.56;16.26;98101.25;5050079;28;20031;-81
2021/01/19 09:38:04;;;;;;;11.63;6.15;;;;;;;25.10;15.77;98107.16;5048558;28;20092;-81
2021/01/19 09:40:35;;;;;;;8.50;5.10;;;;;;;25.60;15.39;98114.31;5038819;28;20064;-81
2021/01/19 09:43:06;;;;;;;13.10;6.70;;;;;;;25.87;15.40;98109.91;5043314;28;20038;-81
2021/01/19 09:45:36;;;;;;;10.32;4.88;;;;;;;26.15;15.17;98105.50;5038998;28;20048;-81
2021/01/19 09:48:04;;;;;;;9.52;4.57;;;;;;;26.37;15.11;98103.59;5047590;28;20044;-81
2021/01/19 09:50:30;;;;;;;7.30;3.70;;;;;;;26.36;15.03;98107.69;5049761;28;20036;-81
2021/01/19 09:52:56;;;;;;;7.60;3.95;;;;;;;25.79;15.71;98111.34;5052285;28;20041;-81
2021/01/19 09:55:30;;;;;;;7.45;3.65;;;;;;;25.60;15.74;98100.25;5053259;28;20397;-81
2021/01/19 09:58:02;;;;;;;6.72;3.88;;;;;;;25.77;15.64;98104.56;5043910;28;20389;-81
2021/01/19 10:00:29;;;;;;;7.20;4.35;;;;;;;25.89;15.66;98101.03;5051411;28;20033;-80
2021/01/19 10:02:55;;;;;;;6.28;3.53;;;;;;;26.20;15.40;98087.28;5043130;28;20038;-80
2021/01/19 10:05:23;;;;;;;5.47;3.50;;;;;;;25.89;15.66;98095.38;5045947;28;20486;-80
2021/01/19 10:07:49;;;;;;;6.50;3.47;;;;;;;25.17;16.26;98087.31;5048198;28;20067;-81
2021/01/19 10:10:18;;;;;;;6.53;3.72;;;;;;;25.64;15.84;98089.69;5052252;28;20390;-79
2021/01/19 10:12:44;;;;;;;6.07;3.83;;;;;;;25.76;15.99;98086.94;5046653;28;20116;-81
2021/01/19 10:15:12;;;;;;;8.15;4.72;;;;;;;25.22;16.34;98086.78;5048141;28;20036;-80
2021/01/19 10:17:39;;;;;;;8.07;3.95;;;;;;;25.50;16.22;98085.25;5047506;28;20037;-80
2021/01/19 10:20:16;;;;;;;6.40;3.30;;;;;;;25.49;16.16;98078.03;5048750;28;20035;-80
2021/01/19 10:22:45;;;;;;;5.65;3.30;;;;;;;25.79;15.86;98077.59;5041841;28;20033;-80
2021/01/19 10:25:24;;;;;;;5.30;3.63;;;;;;;24.83;16.62;98077.78;5052161;28;20508;-80
2021/01/19 10:27:59;;;;;;;6.43;3.92;;;;;;;25.13;16.51;98083.81;5060676;28;20029;-80
2021/01/19 10:30:33;;;;;;;6.50;3.55;;;;;;;25.50;16.34;98074.00;5042107;28;20094;-80
2021/01/19 10:33:00;;;;;;;6.97;4.00;;;;;;;25.67;16.30;98067.09;5049845;28;20513;-81
2021/01/19 10:35:31;;;;;;;8.93;4.07;;;;;;;25.80;16.12;98062.31;5051757;28;20029;-80
2021/01/19 10:38:00;;;;;;;6.03;3.60;;;;;;;25.89;16.07;98056.81;5045340;28;20041;-80
2021/01/19 10:40:28;;;;;;;6.05;4.13;;;;;;;25.93;16.18;98054.66;5047129;28;20102;-80
2021/01/19 10:42:54;;;;;;;5.78;3.72;;;;;;;26.44;15.55;98049.13;5052741;28;20398;-80
2021/01/19 10:45:26;;;;;;;6.43;3.88;;;;;;;25.99;15.92;98046.47;5048931;28;20029;-80
2021/01/19 10:47:52;;;;;;;4.57;2.80;;;;;;;26.56;15.52;98043.47;5054412;28;20487;-81
2021/01/19 10:50:21;;;;;;;5.53;2.85;;;;;;;26.87;15.24;98032.41;5049442;28;20108;-80
2021/01/19 10:52:57;;;;;;;6.47;4.00;;;;;;;26.45;15.54;98028.16;5047151;28;20049;-80
2021/01/19 10:55:23;;;;;;;7.70;3.30;;;;;;;26.66;15.58;98028.25;5046372;28;20041;-81
2021/01/19 10:57:56;;;;;;;6.18;2.97;;;;;;;25.96;16.42;98022.03;5049919;28;20791;-80
2021/01/19 11:00:24;;;;;;;3.60;2.53;;;;;;;26.64;15.61;98018.69;5056621;28;20041;-80
2021/01/19 11:02:50;;;;;;;6.18;3.78;;;;;;;26.41;15.69;98022.66;5056864;28;20112;-81
2021/01/19 11:08:01;;;;;;;5.13;3.35;;;;;;;27.19;15.51;98009.53;5049145;28;20095;-80
2021/01/19 11:10:27;;;;;;;4.45;2.65;;;;;;;27.40;14.99;98017.25;5051846;28;20383;-80
2021/01/19 11:12:54;;;;;;;5.55;3.80;;;;;;;26.45;15.72;98006.44;5054167;28;20029;-80
2021/01/19 11:15:21;;;;;;;4.40;2.92;;;;;;;27.20;15.27;98007.50;5051540;28;20035;-80
2021/01/19 11:17:49;;;;;;;4.72;3.00;;;;;;;26.16;16.07;98014.22;5049653;28;20068;-80
2021/01/19 11:20:16;;;;;;;5.00;3.60;;;;;;;26.64;15.46;98011.03;5046503;28;20095;-81
2021/01/19 11:22:47;;;;;;;6.50;3.15;;;;;;;27.17;15.13;98011.22;5048585;28;20028;-81
2021/01/19 11:25:14;;;;;;;8.02;3.55;;;;;;;27.76;14.85;97999.81;5052768;28;20048;-81
2021/01/19 11:27:41;;;;;;;6.35;3.58;;;;;;;28.01;14.73;97990.41;5046985;28;20032;-81
2021/01/19 11:30:08;;;;;;;5.18;3.00;;;;;;;28.17;14.65;97986.56;5052447;28;20053;-81
2021/01/19 11:32:34;;;;;;;5.88;3.53;;;;;;;28.41;14.45;97987.59;5047761;28;20033;-81
2021/01/19 11:35:00;;;;;;;7.32;3.83;;;;;;;28.40;14.63;97977.56;5050988;28;20048;-81
2021/01/19 11:37:27;;;;;;;4.90;2.95;;;;;;;28.55;14.10;97984.16;5044805;28;20036;-81
2021/01/19 11:39:53;;;;;;;7.63;3.25;;;;;;;28.62;14.41;97973.41;5041368;28;20386;-82
2021/01/19 11:42:19;;;;;;;4.18;2.75;;;;;;;27.84;14.28;97972.13;5041392;28;20025;-81
2021/01/19 11:44:45;;;;;;;6.00;3.10;;;;;;;27.93;14.74;97972.16;5039192;28;20029;-81
2021/01/19 11:47:12;;;;;;;6.80;3.05;;;;;;;27.92;14.61;97967.75;5045560;28;20490;-81